KGSP/GSP METAR and TAF weather

Enter ICAO airport designator
Station Type Date Time Source
KGSP METAR 2021/06/24 04:53 UTC NOAA

KGSP 240453Z 07004KT 10SM CLR 19/14 A3025 RMK AO2 SLP234 T01890144 402780161


Station Type Date Time Source
KGSP Decoded METAR 2021/06/24 04:53 UTC NOAA

GREER GREENVILLE SPARTBURG, SC, United States (KGSP) 34-53N 82-13W 286M
Jun 24, 2021 - 12:53 AM EDT / 2021.06.24 0453 UTC
Wind: from the ENE (070 degrees) at 5 MPH (4 KT):0
Visibility: 10 mile(s):0
Sky conditions: clear
Temperature: 66.0 F (18.9 C)
Dew Point: 57.9 F (14.4 C)
Relative Humidity: 75%
Pressure (altimeter): 30.25 in. Hg (1024 hPa)
ob: KGSP 240453Z 07004KT 10SM CLR 19/14 A3025 RMK AO2 SLP234 T01890144 402780161
cycle: 5

Station Type Date Time Source
KGSP TAF 2021/06/23 18:22 UTC NOAA

TAF KGSP 231720Z 2318/2418 10008KT P6SM BKN050
FM240100 07005KT P6SM SCT060
FM240900 05004KT P6SM SCT025 BKN060
FM241400 07008KT P6SM SCT040

Example: see airport list